Time;durP1;ratioP1;P1;durP2;ratioP2;P2;SDS_P1;SDS_P2;PMS_P1;PMS_P2;Temp;Humidity;BMP_temperature;BMP_pressure;BME280_temperature;BME280_humidity;BME280_pressure;Samples;Min_cycle;Max_cycle;Signal;HPM_P1;HPM_P2
2022/02/13 00:00:36;;;;;;;17.50;12.40;;;1.40;97.50;;;;;;5057136;28;20413;-89
2022/02/13 00:03:02;;;;;;;14.87;9.83;;;1.40;98.00;;;;;;5059707;28;20173;-89
2022/02/13 00:05:28;;;;;;;22.67;12.77;;;1.30;97.50;;;;;;5063085;28;20406;-89
2022/02/13 00:07:54;;;;;;;24.23;13.48;;;1.20;96.80;;;;;;5057179;28;20177;-89
2022/02/13 00:10:20;;;;;;;23.25;11.77;;;1.20;97.70;;;;;;5057811;28;20220;-89
2022/02/13 00:12:46;;;;;;;20.83;10.67;;;1.20;98.20;;;;;;5057403;28;20177;-88
2022/02/13 00:15:12;;;;;;;24.43;13.70;;;1.20;97.60;;;;;;5057299;28;20202;-88
2022/02/13 00:17:37;;;;;;;20.13;11.77;;;1.10;97.10;;;;;;5057414;28;20753;-89
2022/02/13 00:20:05;;;;;;;21.97;11.97;;;1.10;97.60;;;;;;5069309;28;20253;-90
2022/02/13 00:22:31;;;;;;;20.83;11.65;;;1.10;97.60;;;;;;5061282;28;20767;-89
2022/02/13 00:24:57;;;;;;;17.35;11.95;;;1.00;97.70;;;;;;5057091;28;20209;-90
2022/02/13 00:27:23;;;;;;;25.85;11.80;;;1.00;97.90;;;;;;5057317;28;20669;-88
2022/02/13 00:29:49;;;;;;;19.60;12.15;;;1.00;97.60;;;;;;5056920;28;20544;-88
2022/02/13 00:32:15;;;;;;;22.45;13.43;;;0.90;97.70;;;;;;5057083;28;20202;-89
2022/02/13 00:34:41;;;;;;;20.43;13.83;;;0.80;97.80;;;;;;5058666;28;20206;-88
2022/02/13 00:37:07;;;;;;;19.93;12.87;;;0.80;98.10;;;;;;5056824;28;20837;-87
2022/02/13 00:39:32;;;;;;;21.60;13.57;;;0.80;98.10;;;;;;5056843;28;20417;-87
2022/02/13 00:41:59;;;;;;;21.83;14.03;;;0.80;98.50;;;;;;5056954;28;20331;-88
2022/02/13 00:44:25;;;;;;;21.02;13.77;;;0.70;98.90;;;;;;5058215;28;20174;-89
2022/02/13 00:46:51;;;;;;;24.17;14.60;;;0.70;98.70;;;;;;5057900;28;20646;-88
2022/02/13 00:49:17;;;;;;;29.03;16.47;;;0.70;98.60;;;;;;5056572;28;20285;-89
2022/02/13 00:51:43;;;;;;;22.40;15.10;;;0.70;98.50;;;;;;5064687;28;20445;-89
2022/02/13 00:54:08;;;;;;;23.33;13.90;;;0.70;98.50;;;;;;5058241;28;20233;-89
2022/02/13 00:56:34;;;;;;;27.27;15.60;;;0.70;98.70;;;;;;5060303;28;20440;-89
2022/02/13 00:59:00;;;;;;;24.20;14.30;;;0.70;98.60;;;;;;5057919;28;20182;-88
2022/02/13 01:01:26;;;;;;;23.23;15.07;;;0.70;98.80;;;;;;5058972;28;20510;-88
2022/02/13 01:03:53;;;;;;;21.10;13.50;;;0.70;98.50;;;;;;5056533;28;20244;-88
2022/02/13 01:06:19;;;;;;;24.52;13.57;;;0.60;98.00;;;;;;5056699;28;20189;-89
2022/02/13 01:08:45;;;;;;;21.33;13.25;;;0.60;98.20;;;;;;5068533;28;20177;-88
2022/02/13 01:11:11;;;;;;;21.20;13.60;;;0.60;98.40;;;;;;5075426;28;20186;-88
2022/02/13 01:13:37;;;;;;;26.50;15.40;;;0.60;98.00;;;;;;5063271;28;20450;-89
2022/02/13 01:16:03;;;;;;;24.50;14.50;;;0.50;97.90;;;;;;5057160;28;20190;-88
2022/02/13 01:18:29;;;;;;;26.98;15.02;;;0.50;98.00;;;;;;5055817;28;20187;-89
2022/02/13 01:20:54;;;;;;;23.33;14.20;;;0.50;98.30;;;;;;5055938;28;20197;-88
2022/02/13 01:23:20;;;;;;;26.37;14.57;;;0.50;97.80;;;;;;5056986;28;20182;-87
2022/02/13 01:25:46;;;;;;;23.67;15.50;;;0.40;98.10;;;;;;5056660;28;20430;-88
2022/02/13 01:28:12;;;;;;;24.53;14.87;;;0.40;98.70;;;;;;5056072;28;20178;-88
2022/02/13 01:30:38;;;;;;;25.20;14.80;;;0.40;98.70;;;;;;5056667;28;20462;-88
2022/02/13 01:33:04;;;;;;;26.60;14.87;;;0.40;98.40;;;;;;5055489;28;20891;-88
2022/02/13 01:35:30;;;;;;;21.13;14.02;;;0.40;98.30;;;;;;5056821;28;20469;-89
2022/02/13 01:37:56;;;;;;;21.92;13.43;;;0.40;98.70;;;;;;5055746;28;20563;-88
2022/02/13 01:40:22;;;;;;;22.10;13.15;;;0.40;98.40;;;;;;5055934;28;20211;-89
2022/02/13 01:42:48;;;;;;;23.77;14.43;;;0.30;98.70;;;;;;5055372;28;20647;-88
2022/02/13 01:45:14;;;;;;;19.40;13.30;;;0.30;98.60;;;;;;5056416;28;20434;-87
2022/02/13 01:47:41;;;;;;;21.03;12.80;;;0.30;98.80;;;;;;5056515;28;20399;-86
2022/02/13 01:50:09;;;;;;;22.33;13.35;;;0.30;98.80;;;;;;5055922;28;20540;-87
2022/02/13 01:52:35;;;;;;;28.27;13.75;;;0.30;99.10;;;;;;5055268;28;20174;-88
2022/02/13 01:55:03;;;;;;;19.30;13.32;;;0.30;98.90;;;;;;5059817;28;20234;-88
2022/02/13 01:57:29;;;;;;;19.75;12.93;;;0.30;99.10;;;;;;5054892;28;20186;-89
2022/02/13 01:59:58;;;;;;;15.82;12.32;;;0.30;99.10;;;;;;5055370;28;20202;-87
2022/02/13 02:02:24;;;;;;;17.10;11.55;;;0.30;98.80;;;;;;5055380;28;20674;-87
2022/02/13 02:04:52;;;;;;;17.88;11.55;;;0.30;99.10;;;;;;5057248;28;20256;-88
2022/02/13 02:07:17;;;;;;;16.70;11.88;;;0.30;99.30;;;;;;5055413;28;20181;-89
2022/02/13 02:09:47;;;;;;;23.77;14.30;;;0.30;99.40;;;;;;5056449;28;20209;-88
2022/02/13 02:12:13;;;;;;;20.13;12.43;;;0.30;99.20;;;;;;5054757;28;20214;-89
2022/02/13 02:14:39;;;;;;;23.83;12.87;;;0.30;99.10;;;;;;5056744;28;20201;-87
2022/02/13 02:17:05;;;;;;;21.52;12.82;;;0.20;99.40;;;;;;5055106;28;20669;-89
2022/02/13 02:19:32;;;;;;;38.00;19.30;;;0.20;99.60;;;;;;5055134;28;20205;-88
2022/02/13 02:21:58;;;;;;;59.28;28.60;;;0.20;99.90;;;;;;5055808;28;20895;-88
2022/02/13 02:24:24;;;;;;;67.88;34.63;;;0.20;99.90;;;;;;5054937;28;20280;-89
2022/02/13 02:26:49;;;;;;;52.60;24.90;;;0.20;99.70;;;;;;5064138;28;20205;-87
2022/02/13 02:29:16;;;;;;;24.70;13.90;;;0.20;99.90;;;;;;5071786;28;20181;-89
2022/02/13 02:31:43;;;;;;;23.55;14.00;;;0.30;99.90;;;;;;5063992;28;20433;-88
2022/02/13 02:34:09;;;;;;;28.67;14.05;;;0.30;99.80;;;;;;5054756;28;20178;-87
2022/02/13 02:36:35;;;;;;;71.63;34.27;;;0.30;99.70;;;;;;5054278;28;20292;-87
2022/02/13 02:39:01;;;;;;;69.53;32.38;;;0.20;99.90;;;;;;5055775;28;20441;-88
2022/02/13 02:41:27;;;;;;;72.47;34.70;;;0.20;99.90;;;;;;5056194;28;20194;-89
2022/02/13 02:43:52;;;;;;;61.20;29.20;;;0.20;99.90;;;;;;5055881;28;20413;-88
2022/02/13 02:46:18;;;;;;;58.93;25.83;;;0.20;99.90;;;;;;5055225;28;20423;-88
2022/02/13 02:48:44;;;;;;;49.30;27.50;;;0.20;99.90;;;;;;5054193;28;20580;-88
2022/02/13 02:51:09;;;;;;;69.30;32.10;;;0.20;99.90;;;;;;5054105;28;20248;-89
2022/02/13 02:53:36;;;;;;;70.90;31.53;;;0.20;99.90;;;;;;5054515;28;20174;-88
2022/02/13 02:56:03;;;;;;;73.65;31.90;;;0.20;99.90;;;;;;5059329;28;20441;-89
2022/02/13 02:58:29;;;;;;;63.05;30.27;;;0.20;99.90;;;;;;5057471;28;20185;-87
2022/02/13 03:00:55;;;;;;;72.80;32.70;;;0.10;99.90;;;;;;5057249;28;20561;-89
2022/02/13 03:03:22;;;;;;;69.17;31.70;;;0.10;99.90;;;;;;5075495;28;20794;-88
2022/02/13 03:05:50;;;;;;;59.67;32.65;;;0.10;99.90;;;;;;5075084;28;20284;-89
2022/02/13 03:08:17;;;;;;;52.95;29.33;;;0.10;99.90;;;;;;5059628;28;20186;-88
2022/02/13 03:10:43;;;;;;;48.58;25.50;;;0.10;99.90;;;;;;5057030;28;20733;-88
2022/02/13 03:13:11;;;;;;;47.03;25.67;;;0.10;99.90;;;;;;5057121;28;20547;-88
2022/02/13 03:15:37;;;;;;;26.77;16.92;;;0.00;99.90;;;;;;5074567;28;20204;-87
2022/02/13 03:18:03;;;;;;;41.67;23.95;;;0.00;99.90;;;;;;5059672;28;20173;-88
2022/02/13 03:20:28;;;;;;;29.03;17.30;;;0.00;99.90;;;;;;5075665;28;20185;-88
2022/02/13 03:22:54;;;;;;;27.63;14.40;;;0.00;99.90;;;;;;5075341;28;20177;-88
2022/02/13 03:25:20;;;;;;;26.30;15.87;;;0.00;99.90;;;;;;5057617;28;20197;-89
2022/02/13 03:27:46;;;;;;;31.50;17.20;;;-0.10;99.90;;;;;;5057151;28;20377;-88
2022/02/13 03:30:12;;;;;;;25.03;14.90;;;-0.10;99.90;;;;;;5057344;28;20933;-88
2022/02/13 03:32:38;;;;;;;29.50;19.20;;;-0.10;99.90;;;;;;5073589;28;20177;-88
2022/02/13 03:35:04;;;;;;;25.37;16.13;;;-0.10;99.90;;;;;;5094102;28;20212;-88
2022/02/13 03:37:30;;;;;;;24.30;15.20;;;-0.10;99.90;;;;;;5075280;28;20410;-88
2022/02/13 03:39:56;;;;;;;17.53;13.33;;;-0.10;99.90;;;;;;5070513;28;20747;-88
2022/02/13 03:42:21;;;;;;;22.63;15.10;;;-0.10;99.90;;;;;;5057037;28;20475;-89
2022/02/13 03:44:51;;;;;;;16.07;12.13;;;-0.10;99.90;;;;;;5056933;28;20212;-88
2022/02/13 03:47:17;;;;;;;23.02;12.48;;;-0.10;99.90;;;;;;5057003;28;20318;-87
2022/02/13 03:49:43;;;;;;;15.52;11.10;;;-0.20;99.90;;;;;;5056781;28;20569;-88
2022/02/13 03:52:09;;;;;;;27.43;13.70;;;-0.20;99.90;;;;;;5074815;28;20205;-89
2022/02/13 03:54:35;;;;;;;20.08;12.48;;;-0.20;99.90;;;;;;5052890;28;20794;-89
2022/02/13 03:57:01;;;;;;;18.23;11.40;;;-0.20;99.90;;;;;;5053435;28;20228;-88
2022/02/13 03:59:26;;;;;;;17.40;10.80;;;-0.20;99.90;;;;;;5054117;28;20406;-88
2022/02/13 04:01:52;;;;;;;21.07;12.93;;;-0.20;99.90;;;;;;5058315;28;20177;-88
2022/02/13 04:04:18;;;;;;;18.20;10.93;;;-0.20;99.90;;;;;;5056153;28;20430;-87
2022/02/13 04:06:44;;;;;;;24.77;12.17;;;-0.30;99.90;;;;;;5056607;28;20231;-88
2022/02/13 04:09:09;;;;;;;16.90;10.90;;;-0.30;99.90;;;;;;5060095;28;20186;-88
2022/02/13 04:11:35;;;;;;;20.97;12.17;;;-0.40;99.90;;;;;;5060859;28;20573;-88
2022/02/13 04:14:01;;;;;;;16.50;13.13;;;-0.40;99.90;;;;;;5060629;28;20988;-89
2022/02/13 04:16:27;;;;;;;22.53;11.57;;;-0.40;99.90;;;;;;5058425;28;20443;-88
2022/02/13 04:18:52;;;;;;;21.33;14.03;;;-0.40;99.90;;;;;;5061350;28;20182;-88
2022/02/13 04:21:18;;;;;;;20.93;13.17;;;-0.50;99.90;;;;;;5056031;28;20197;-88
2022/02/13 04:23:44;;;;;;;14.73;11.50;;;-0.50;99.90;;;;;;5054919;28;20521;-89
2022/02/13 04:26:09;;;;;;;22.17;12.70;;;-0.50;99.90;;;;;;5062569;28;20198;-88
2022/02/13 04:28:35;;;;;;;18.87;12.50;;;-0.50;99.90;;;;;;5055449;28;20273;-88
2022/02/13 04:31:01;;;;;;;21.43;11.60;;;-0.60;99.90;;;;;;5053249;28;20444;-88
2022/02/13 04:33:27;;;;;;;22.15;12.70;;;-0.60;99.90;;;;;;5053125;28;20829;-88
2022/02/13 04:35:53;;;;;;;20.73;12.30;;;-0.70;99.90;;;;;;5054315;28;20229;-88
2022/02/13 04:38:19;;;;;;;19.93;11.90;;;-0.70;99.90;;;;;;5053683;28;20615;-89
2022/02/13 04:40:46;;;;;;;20.45;12.93;;;-0.70;99.90;;;;;;5054210;28;20280;-87
2022/02/13 04:43:11;;;;;;;20.65;13.13;;;-0.80;99.90;;;;;;5054772;28;20698;-88
2022/02/13 04:45:38;;;;;;;19.10;13.03;;;-0.70;99.90;;;;;;5056157;28;20240;-89
2022/02/13 04:48:04;;;;;;;21.25;13.55;;;-0.80;99.90;;;;;;5057103;28;20417;-89
2022/02/13 04:50:30;;;;;;;19.65;12.90;;;-0.80;99.90;;;;;;5068030;28;20229;-88
2022/02/13 04:52:56;;;;;;;20.13;12.50;;;-0.80;99.90;;;;;;5064921;28;20174;-87
2022/02/13 04:55:22;;;;;;;22.73;12.57;;;-0.90;99.90;;;;;;5072671;28;20462;-88
2022/02/13 04:57:49;;;;;;;20.33;13.00;;;-0.90;99.90;;;;;;5059811;28;20177;-88
2022/02/13 05:00:16;;;;;;;20.52;13.60;;;-0.90;99.90;;;;;;5059628;28;20193;-88
2022/02/13 05:02:44;;;;;;;23.10;13.35;;;-0.90;99.90;;;;;;5060013;28;20220;-87
2022/02/13 05:05:11;;;;;;;28.02;15.35;;;-0.90;99.90;;;;;;5077756;28;20205;-88
2022/02/13 05:07:37;;;;;;;25.00;13.95;;;-0.90;99.90;;;;;;5059251;28;20185;-88
2022/02/13 05:10:03;;;;;;;20.02;13.18;;;-0.90;99.90;;;;;;5059859;28;20654;-89
2022/02/13 05:12:29;;;;;;;23.25;13.70;;;-1.00;99.90;;;;;;5062105;28;20212;-88
2022/02/13 05:14:55;;;;;;;26.37;14.70;;;-1.00;99.90;;;;;;5066978;28;20301;-88
2022/02/13 05:17:21;;;;;;;20.97;13.10;;;-1.00;99.90;;;;;;5064866;28;20173;-88
2022/02/13 05:19:48;;;;;;;23.38;12.68;;;-1.00;99.90;;;;;;5061285;28;20251;-88
2022/02/13 05:22:15;;;;;;;23.08;12.70;;;-1.00;99.90;;;;;;5059687;28;20667;-87
2022/02/13 05:24:40;;;;;;;17.90;12.82;;;-1.00;99.90;;;;;;5059363;28;20208;-89
2022/02/13 05:27:06;;;;;;;17.60;12.50;;;-1.10;99.90;;;;;;5077122;28;20623;-87
2022/02/13 05:29:36;;;;;;;20.95;12.07;;;-1.10;99.90;;;;;;5059227;28;20211;-89
2022/02/13 05:32:06;;;;;;;19.83;12.93;;;-1.10;99.90;;;;;;5058585;28;20205;-87
2022/02/13 05:34:32;;;;;;;20.63;11.88;;;-1.20;99.90;;;;;;5059138;28;20236;-87
2022/02/13 05:36:58;;;;;;;19.23;12.48;;;-1.20;99.90;;;;;;5076547;28;20173;-87
2022/02/13 05:39:24;;;;;;;22.83;12.80;;;-1.20;99.90;;;;;;5058759;28;20520;-88
2022/02/13 05:41:49;;;;;;;17.17;10.97;;;-1.20;99.90;;;;;;5076598;28;20381;-87
2022/02/13 05:44:16;;;;;;;19.93;11.53;;;-1.20;99.90;;;;;;5058968;28;20196;-87
2022/02/13 05:46:42;;;;;;;18.48;10.57;;;-1.30;99.90;;;;;;5076523;28;20252;-87
2022/02/13 05:49:08;;;;;;;20.52;12.25;;;-1.30;99.90;;;;;;5059028;28;20193;-88
2022/02/13 05:51:35;;;;;;;19.40;11.90;;;-1.30;99.90;;;;;;5058563;28;20262;-88
2022/02/13 05:54:01;;;;;;;16.85;11.77;;;-1.30;99.90;;;;;;5055254;28;20702;-87
2022/02/13 05:56:27;;;;;;;17.07;11.20;;;-1.40;99.90;;;;;;5055832;28;20452;-87
2022/02/13 05:58:53;;;;;;;19.77;11.25;;;-1.40;99.90;;;;;;5055229;28;20427;-88
2022/02/13 06:01:19;;;;;;;16.27;10.23;;;-1.50;99.90;;;;;;5056340;28;20632;-87
2022/02/13 06:03:46;;;;;;;20.25;11.30;;;-1.50;99.90;;;;;;5055031;28;20189;-89
2022/02/13 06:06:12;;;;;;;16.33;11.30;;;-1.50;99.90;;;;;;5054887;28;20205;-88
2022/02/13 06:08:38;;;;;;;19.07;10.90;;;-1.50;99.90;;;;;;5054876;28;20669;-88
2022/02/13 06:11:05;;;;;;;14.40;10.55;;;-1.50;99.90;;;;;;5054912;28;20437;-87
2022/02/13 06:13:31;;;;;;;19.63;11.55;;;-1.50;99.90;;;;;;5055076;28;20388;-88
2022/02/13 06:15:57;;;;;;;17.60;11.00;;;-1.50;99.90;;;;;;5066259;28;20216;-88
2022/02/13 06:18:22;;;;;;;16.58;10.73;;;-1.50;99.90;;;;;;5064943;28;20409;-88
2022/02/13 06:20:48;;;;;;;17.80;10.30;;;-1.50;99.90;;;;;;5055580;28;20626;-89
2022/02/13 06:23:15;;;;;;;22.33;12.50;;;-1.40;99.90;;;;;;5059504;28;20414;-87
2022/02/13 06:25:41;;;;;;;16.73;10.90;;;-1.40;99.90;;;;;;5054435;28;20485;-87
2022/02/13 06:28:07;;;;;;;17.20;11.20;;;-1.40;99.90;;;;;;5055664;28;20192;-88
2022/02/13 06:30:33;;;;;;;19.60;12.50;;;-1.30;99.90;;;;;;5054495;28;20214;-89
2022/02/13 06:33:02;;;;;;;18.70;12.38;;;-1.30;99.90;;;;;;5061120;28;20248;-88
2022/02/13 06:35:30;;;;;;;19.38;12.30;;;-1.30;99.90;;;;;;5056148;28;20259;-88
2022/02/13 06:37:55;;;;;;;22.08;13.65;;;-1.30;99.90;;;;;;5054235;28;20204;-88
2022/02/13 06:40:21;;;;;;;16.60;11.10;;;-1.20;99.90;;;;;;5054226;28;20197;-88
2022/02/13 06:42:48;;;;;;;21.57;12.60;;;-1.10;99.90;;;;;;5055298;28;20411;-87
2022/02/13 06:45:14;;;;;;;18.80;11.75;;;-1.10;99.90;;;;;;5054413;28;20205;-87
2022/02/13 06:47:41;;;;;;;18.30;12.32;;;-1.00;99.90;;;;;;5054362;28;20559;-88
2022/02/13 06:50:08;;;;;;;21.83;12.95;;;-0.90;99.90;;;;;;5055772;28;20729;-87
2022/02/13 06:52:34;;;;;;;23.38;13.30;;;-0.80;99.90;;;;;;5055477;28;20229;-89
2022/02/13 06:55:00;;;;;;;20.47;13.43;;;-0.70;99.90;;;;;;5053779;28;20241;-87
2022/02/13 06:57:26;;;;;;;23.63;16.10;;;-0.60;99.90;;;;;;5055935;28;20381;-89
2022/02/13 06:59:52;;;;;;;23.37;13.70;;;-0.60;99.90;;;;;;5063840;28;20214;-87
2022/02/13 07:02:17;;;;;;;24.67;15.07;;;-0.50;99.90;;;;;;5054108;28;20407;-87
2022/02/13 07:04:43;;;;;;;22.87;14.03;;;-0.40;99.90;;;;;;5057179;28;20248;-89
2022/02/13 07:07:09;;;;;;;26.93;14.77;;;-0.30;99.90;;;;;;5070377;28;20189;-88
2022/02/13 07:09:35;;;;;;;25.27;16.33;;;-0.10;99.90;;;;;;5056824;28;20217;-89
2022/02/13 07:12:05;;;;;;;31.90;16.73;;;0.00;99.90;;;;;;5053917;28;20466;-89
2022/02/13 07:14:35;;;;;;;31.40;16.85;;;0.10;99.90;;;;;;5058503;28;20446;-87
2022/02/13 07:17:01;;;;;;;22.92;17.67;;;0.30;99.90;;;;;;5060554;28;20216;-89
2022/02/13 07:19:27;;;;;;;28.90;17.20;;;0.50;99.90;;;;;;5054691;28;20201;-88
2022/02/13 07:21:53;;;;;;;27.98;16.80;;;0.60;99.90;;;;;;5064835;28;20425;-89
2022/02/13 07:24:19;;;;;;;26.43;18.20;;;0.80;99.90;;;;;;5070938;28;20189;-88
2022/02/13 07:26:44;;;;;;;26.20;16.92;;;1.00;99.90;;;;;;5073792;28;20465;-88
2022/02/13 07:29:10;;;;;;;29.60;18.90;;;1.20;99.90;;;;;;5057436;28;20311;-89
2022/02/13 07:31:37;;;;;;;27.73;16.70;;;1.30;99.90;;;;;;5053572;28;20216;-87
2022/02/13 07:34:04;;;;;;;26.88;18.17;;;1.50;99.90;;;;;;5053568;28;20689;-88
2022/02/13 07:36:31;;;;;;;27.13;17.95;;;1.80;99.90;;;;;;5053175;28;20194;-89
2022/02/13 07:38:57;;;;;;;27.73;18.88;;;2.10;99.90;;;;;;5053717;28;20244;-90
2022/02/13 07:41:25;;;;;;;27.73;18.27;;;2.50;99.90;;;;;;5054459;28;20281;-89
2022/02/13 07:43:52;;;;;;;31.58;18.33;;;2.90;99.90;;;;;;5053405;28;20205;-88
2022/02/13 07:46:18;;;;;;;27.83;16.75;;;3.20;99.90;;;;;;5054447;28;20236;-89
2022/02/13 07:48:44;;;;;;;26.70;15.30;;;3.50;99.90;;;;;;5052995;28;20647;-88
2022/02/13 07:51:09;;;;;;;23.17;15.40;;;3.60;99.90;;;;;;5053167;28;20991;-88
2022/02/13 07:53:36;;;;;;;22.93;15.93;;;3.70;99.90;;;;;;5055303;28;20792;-89
2022/02/13 07:56:03;;;;;;;24.75;15.98;;;3.70;99.90;;;;;;5056911;28;20739;-89
2022/02/13 07:58:32;;;;;;;27.88;17.83;;;3.70;99.90;;;;;;5056709;28;20181;-88
2022/02/13 08:01:06;;;;;;;28.50;16.27;;;3.70;99.90;;;;;;5056022;28;20300;-89
2022/02/13 08:03:35;;;;;;;23.42;16.13;;;3.80;99.90;;;;;;5056468;28;20181;-89
2022/02/13 08:06:01;;;;;;;22.88;15.25;;;3.80;99.90;;;;;;5056414;28;20197;-89
2022/02/13 08:08:28;;;;;;;21.15;14.50;;;3.80;99.90;;;;;;5056350;28;20272;-88
2022/02/13 08:10:53;;;;;;;27.02;17.35;;;3.90;99.90;;;;;;5056155;28;20216;-89
2022/02/13 08:13:19;;;;;;;24.70;15.90;;;3.90;99.90;;;;;;5064023;28;20270;-89
2022/02/13 08:15:45;;;;;;;21.33;15.00;;;4.00;99.90;;;;;;5067811;28;20193;-88
2022/02/13 08:18:14;;;;;;;23.70;15.83;;;4.10;99.90;;;;;;5056192;28;20571;-89
2022/02/13 08:20:40;;;;;;;18.05;12.85;;;4.20;99.90;;;;;;5077487;28;20252;-90
2022/02/13 08:23:07;;;;;;;23.05;14.25;;;4.30;99.90;;;;;;5060106;28;20223;-88
2022/02/13 08:25:34;;;;;;;22.48;13.07;;;4.50;99.90;;;;;;5078160;28;20238;-88
2022/02/13 08:28:00;;;;;;;20.77;12.82;;;4.80;99.90;;;;;;5059594;28;20299;-89
2022/02/13 08:30:26;;;;;;;19.30;13.07;;;5.10;99.90;;;;;;5060118;28;20658;-90
2022/02/13 08:32:52;;;;;;;18.00;12.47;;;5.40;99.90;;;;;;5060044;28;20218;-88
2022/02/13 08:35:18;;;;;;;16.20;11.88;;;5.80;99.90;;;;;;5059777;28;20404;-87
2022/02/13 08:37:44;;;;;;;16.80;13.73;;;6.30;99.90;;;;;;5059872;28;20180;-89
2022/02/13 08:40:10;;;;;;;15.70;11.93;;;7.00;99.90;;;;;;5077968;28;20396;-89
2022/02/13 08:42:36;;;;;;;14.93;11.25;;;7.90;99.90;;;;;;5059612;28;20177;-91
2022/02/13 08:45:03;;;;;;;15.47;10.47;;;8.80;99.90;;;;;;5059999;28;20201;-90
2022/02/13 08:47:30;;;;;;;14.82;10.05;;;9.20;99.40;;;;;;5059920;28;20179;-89
2022/02/13 08:49:55;;;;;;;13.20;9.48;;;9.50;99.10;;;;;;5059759;28;20644;-88
2022/02/13 08:52:21;;;;;;;13.50;10.80;;;10.00;97.30;;;;;;5059345;28;20341;-89
2022/02/13 08:54:47;;;;;;;13.50;9.73;;;10.30;96.30;;;;;;5056086;28;20273;-88
2022/02/13 08:57:14;;;;;;;12.32;10.50;;;10.10;95.90;;;;;;5057647;28;20170;-89
2022/02/13 08:59:39;;;;;;;13.30;10.45;;;9.90;95.50;;;;;;5056565;28;20197;-88
2022/02/13 09:02:05;;;;;;;10.93;9.63;;;9.60;95.70;;;;;;5074751;28;20250;-89
2022/02/13 09:04:31;;;;;;;16.77;12.10;;;9.80;95.90;;;;;;5058890;28;20282;-88
2022/02/13 09:07:00;;;;;;;12.67;10.70;;;10.20;95.30;;;;;;5055701;28;20422;-89
2022/02/13 09:09:26;;;;;;;14.02;11.35;;;10.70;94.10;;;;;;5055755;28;20413;-89
2022/02/13 09:11:52;;;;;;;12.75;10.70;;;10.90;93.40;;;;;;5056838;28;20205;-90
2022/02/13 09:14:18;;;;;;;15.93;11.47;;;10.60;93.70;;;;;;5057158;28;20182;-89
2022/02/13 09:16:43;;;;;;;14.73;11.10;;;10.30;93.60;;;;;;5057288;28;20253;-90
2022/02/13 09:19:09;;;;;;;20.63;12.47;;;9.90;94.10;;;;;;5055868;28;20177;-88
2022/02/13 09:21:35;;;;;;;15.27;11.97;;;9.50;94.70;;;;;;5055633;28;20177;-88
2022/02/13 09:24:06;;;;;;;15.10;12.00;;;9.10;95.50;;;;;;5056007;28;20207;-90
2022/02/13 09:26:31;;;;;;;17.20;12.52;;;8.90;95.80;;;;;;5056895;28;20197;-89
2022/02/13 09:29:00;;;;;;;14.47;11.47;;;8.70;96.30;;;;;;5055717;28;20548;-88
2022/02/13 09:31:26;;;;;;;16.13;11.75;;;8.70;96.30;;;;;;5056190;28;20209;-91
2022/02/13 09:33:52;;;;;;;15.50;12.17;;;8.60;96.40;;;;;;5068890;28;20186;-91
2022/02/13 09:36:21;;;;;;;17.50;11.88;;;8.50;96.70;;;;;;5055559;28;20810;-90
2022/02/13 09:38:48;;;;;;;16.83;11.10;;;8.50;96.90;;;;;;5055488;28;20224;-90
2022/02/13 09:41:21;;;;;;;19.63;13.05;;;8.50;97.10;;;;;;5055294;28;20678;-90
2022/02/13 09:43:48;;;;;;;16.05;10.82;;;8.70;97.30;;;;;;5054736;28;20178;-89
2022/02/13 09:46:15;;;;;;;12.60;10.30;;;9.20;97.50;;;;;;5054978;28;20198;-89
2022/02/13 09:48:42;;;;;;;12.05;10.07;;;10.00;96.90;;;;;;5055240;28;20639;-89
2022/02/13 09:51:10;;;;;;;12.15;9.70;;;10.90;95.40;;;;;;5053976;28;20209;-90
2022/02/13 09:53:36;;;;;;;10.90;8.60;;;11.70;94.20;;;;;;5055288;28;20182;-89
2022/02/13 09:56:06;;;;;;;11.85;9.10;;;12.30;92.50;;;;;;5056810;28;20204;-91
2022/02/13 09:58:33;;;;;;;13.68;8.93;;;12.70;91.50;;;;;;5057079;28;20191;-90
2022/02/13 10:01:04;;;;;;;15.65;9.23;;;12.80;90.80;;;;;;5075611;28;20601;-89
2022/02/13 10:03:36;;;;;;;13.25;9.57;;;12.80;90.80;;;;;;5057803;28;20208;-88
2022/02/13 10:06:11;;;;;;;9.80;8.05;;;12.80;90.80;;;;;;5074201;28;20276;-89
2022/02/13 10:08:48;;;;;;;11.32;8.50;;;12.80;90.20;;;;;;5077273;28;20643;-87
2022/02/13 10:11:14;;;;;;;16.13;12.50;;;12.70;89.50;;;;;;5084666;28;20239;-89
2022/02/13 10:13:48;;;;;;;11.07;8.63;;;12.50;89.50;;;;;;5066250;28;20207;-89
2022/02/13 10:16:25;;;;;;;9.85;8.52;;;12.20;89.80;;;;;;5072343;28;20223;-90
2022/02/13 10:19:06;;;;;;;12.13;7.32;;;11.80;90.40;;;;;;5071187;28;20199;-90
2022/02/13 10:21:39;;;;;;;12.70;8.88;;;11.50;90.70;;;;;;5057925;28;20184;-90
2022/02/13 10:24:34;;;;;;;11.57;9.73;;;11.20;91.00;;;;;;5056136;28;20185;-90
2022/02/13 10:27:00;;;;;;;14.77;9.45;;;10.90;91.10;;;;;;5056048;28;20242;-88
2022/02/13 10:29:27;;;;;;;17.77;13.00;;;10.50;91.70;;;;;;5055434;28;20182;-88
2022/02/13 10:32:25;;;;;;;12.77;11.57;;;10.30;92.30;;;;;;5056190;28;20216;-90
2022/02/13 10:35:03;;;;;;;11.38;10.15;;;9.90;92.60;;;;;;5055353;28;20208;-88
2022/02/13 10:37:51;;;;;;;13.50;10.07;;;9.60;93.20;;;;;;5074876;28;20575;-90
2022/02/13 10:40:18;;;;;;;14.93;9.77;;;9.30;93.60;;;;;;5058078;28;20204;-88
2022/02/13 10:42:45;;;;;;;22.02;15.95;;;9.00;94.20;;;;;;5058168;28;20252;-87
2022/02/13 10:45:38;;;;;;;14.80;10.38;;;8.80;94.70;;;;;;5063839;28;20205;-88
2022/02/13 10:48:05;;;;;;;13.45;10.10;;;8.60;95.20;;;;;;5053918;28;20181;-90
2022/02/13 10:50:36;;;;;;;13.25;9.20;;;8.40;95.60;;;;;;5075510;28;20732;-90
2022/02/13 10:53:04;;;;;;;13.88;9.90;;;8.30;96.00;;;;;;5076036;28;20172;-90
2022/02/13 10:55:32;;;;;;;19.63;12.52;;;8.30;96.40;;;;;;5054437;28;20729;-88
2022/02/13 10:57:58;;;;;;;15.57;11.48;;;8.20;96.50;;;;;;5055081;28;20178;-89
2022/02/13 11:00:30;;;;;;;13.00;9.15;;;8.20;96.70;;;;;;5054347;28;20197;-91
2022/02/13 11:03:05;;;;;;;12.57;10.07;;;8.20;97.20;;;;;;5054166;28;20635;-89
2022/02/13 11:05:32;;;;;;;15.48;12.07;;;8.20;97.10;;;;;;5052948;28;20220;-89
2022/02/13 11:08:06;;;;;;;12.90;8.85;;;8.30;96.80;;;;;;5053298;28;20253;-88
2022/02/13 11:10:36;;;;;;;13.60;9.70;;;8.30;96.70;;;;;;5053277;28;20193;-88
2022/02/13 11:13:04;;;;;;;15.30;10.10;;;8.30;96.50;;;;;;5064710;28;20466;-89
2022/02/13 11:15:31;;;;;;;12.15;8.73;;;8.30;96.50;;;;;;5070384;28;20224;-88
2022/02/13 11:18:08;;;;;;;10.73;8.27;;;8.30;95.90;;;;;;5057862;28;20282;-90
2022/02/13 11:20:35;;;;;;;11.35;7.90;;;8.30;95.60;;;;;;5051881;28;20190;-88
2022/02/13 11:23:27;;;;;;;11.40;7.32;;;8.20;95.30;;;;;;5055554;28;20174;-90
2022/02/13 11:26:06;;;;;;;10.55;7.47;;;8.20;95.20;;;;;;5054866;28;20202;-90
2022/02/13 11:28:41;;;;;;;8.55;7.20;;;8.10;95.50;;;;;;5055131;28;20193;-89
2022/02/13 11:31:07;;;;;;;11.27;9.80;;;8.10;95.50;;;;;;5051340;28;20628;-90
2022/02/13 11:33:35;;;;;;;10.18;8.40;;;8.00;95.60;;;;;;5051872;28;20206;-88
2022/02/13 11:36:07;;;;;;;10.20;7.57;;;8.00;95.70;;;;;;5051401;28;20590;-90
2022/02/13 11:38:48;;;;;;;11.00;7.45;;;8.00;95.70;;;;;;5053362;28;20185;-89
2022/02/13 11:41:19;;;;;;;13.00;9.18;;;8.00;95.90;;;;;;5057206;28;20190;-90
2022/02/13 11:43:45;;;;;;;10.32;7.90;;;8.00;96.00;;;;;;5061471;28;20189;-90
2022/02/13 11:46:26;;;;;;;10.30;7.80;;;8.00;95.90;;;;;;5053405;28;20201;-90
2022/02/13 11:49:04;;;;;;;10.45;8.20;;;7.90;95.70;;;;;;5053539;28;20182;-88
2022/02/13 11:51:54;;;;;;;7.70;6.55;;;7.80;95.50;;;;;;5047108;28;20206;-89
2022/02/13 11:54:38;;;;;;;9.55;7.57;;;7.80;95.40;;;;;;5040946;28;20269;-90
2022/02/13 11:57:08;;;;;;;9.60;7.85;;;7.80;95.80;;;;;;5037099;28;20273;-89
2022/02/13 11:59:55;;;;;;;12.13;8.52;;;7.70;95.60;;;;;;5052834;28;20205;-89
2022/02/13 12:02:30;;;;;;;10.60;8.40;;;7.80;95.80;;;;;;5060636;28;20177;-89
2022/02/13 12:05:11;;;;;;;10.02;8.80;;;7.80;95.80;;;;;;5038922;28;20205;-88
2022/02/13 12:07:43;;;;;;;9.30;7.57;;;7.80;95.60;;;;;;5038211;28;20181;-89
2022/02/13 12:10:13;;;;;;;9.48;7.95;;;7.80;95.70;;;;;;5049259;28;20701;-89
2022/02/13 12:12:42;;;;;;;12.45;9.23;;;7.70;95.70;;;;;;5045966;28;20225;-89
2022/02/13 12:15:08;;;;;;;11.30;8.13;;;7.60;95.90;;;;;;5054080;28;20212;-89
2022/02/13 12:17:34;;;;;;;14.73;9.43;;;7.60;96.10;;;;;;5041336;28;20170;-88
2022/02/13 12:20:08;;;;;;;10.20;8.53;;;7.50;96.10;;;;;;5042622;28;20497;-88
2022/02/13 12:22:35;;;;;;;13.23;8.85;;;7.50;96.10;;;;;;5037880;28;20177;-90
2022/02/13 12:25:03;;;;;;;16.48;10.88;;;7.50;96.20;;;;;;5054446;28;20198;-90
2022/02/13 12:27:29;;;;;;;11.20;7.85;;;7.50;96.30;;;;;;5036215;28;20235;-89
2022/02/13 12:29:57;;;;;;;7.83;6.20;;;7.60;96.10;;;;;;5054282;28;20201;-88
2022/02/13 12:32:31;;;;;;;8.60;7.40;;;7.60;96.00;;;;;;5036019;28;20561;-88
2022/02/13 12:35:13;;;;;;;12.32;9.10;;;7.60;96.10;;;;;;5054388;28;20197;-89
2022/02/13 12:37:45;;;;;;;19.13;10.20;;;7.70;96.30;;;;;;5036005;28;20186;-90